sensor_id;sensor_type;location;lat;lon;timestamp;temperature;humidity
9699;DHT22;10089;47.876;8.346;2023-06-26T00:01:57;18.50;1.00
9699;DHT22;10089;47.876;8.346;2023-06-26T00:04:23;17.10;1.00
9699;DHT22;10089;47.876;8.346;2023-06-26T00:06:48;17.40;1.00
9699;DHT22;10089;47.876;8.346;2023-06-26T00:09:14;17.70;1.00
9699;DHT22;10089;47.876;8.346;2023-06-26T00:11:39;17.70;1.00
9699;DHT22;10089;47.876;8.346;2023-06-26T00:14:05;17.80;1.00
9699;DHT22;10089;47.876;8.346;2023-06-26T00:16:31;18.50;1.00
9699;DHT22;10089;47.876;8.346;2023-06-26T00:18:57;16.90;1.00
9699;DHT22;10089;47.876;8.346;2023-06-26T00:21:24;17.00;1.00
9699;DHT22;10089;47.876;8.346;2023-06-26T00:23:51;18.00;1.00
9699;DHT22;10089;47.876;8.346;2023-06-26T00:26:16;17.20;1.00
9699;DHT22;10089;47.876;8.346;2023-06-26T00:28:42;17.10;1.00
9699;DHT22;10089;47.876;8.346;2023-06-26T00:31:08;16.90;1.00
9699;DHT22;10089;47.876;8.346;2023-06-26T00:33:33;17.40;1.00
9699;DHT22;10089;47.876;8.346;2023-06-26T00:35:59;16.90;1.00
9699;DHT22;10089;47.876;8.346;2023-06-26T00:38:24;16.50;1.00
9699;DHT22;10089;47.876;8.346;2023-06-26T00:40:50;16.80;99.90
9699;DHT22;10089;47.876;8.346;2023-06-26T00:43:16;17.20;1.00
9699;DHT22;10089;47.876;8.346;2023-06-26T00:45:42;17.60;99.90
9699;DHT22;10089;47.876;8.346;2023-06-26T00:48:09;17.10;99.90
9699;DHT22;10089;47.876;8.346;2023-06-26T00:50:37;16.90;99.90
9699;DHT22;10089;47.876;8.346;2023-06-26T00:53:03;18.40;99.90
9699;DHT22;10089;47.876;8.346;2023-06-26T00:55:29;16.90;1.00
9699;DHT22;10089;47.876;8.346;2023-06-26T00:57:55;16.90;1.00
9699;DHT22;10089;47.876;8.346;2023-06-26T01:00:21;17.20;1.00
9699;DHT22;10089;47.876;8.346;2023-06-26T01:02:47;17.00;1.00
9699;DHT22;10089;47.876;8.346;2023-06-26T01:05:13;17.90;1.00
9699;DHT22;10089;47.876;8.346;2023-06-26T01:07:50;18.20;1.00
9699;DHT22;10089;47.876;8.346;2023-06-26T01:10:16;16.80;1.00
9699;DHT22;10089;47.876;8.346;2023-06-26T01:12:42;16.70;1.00
9699;DHT22;10089;47.876;8.346;2023-06-26T01:15:08;16.90;1.00
9699;DHT22;10089;47.876;8.346;2023-06-26T01:17:36;16.90;99.90
9699;DHT22;10089;47.876;8.346;2023-06-26T01:20:04;17.50;1.00
9699;DHT22;10089;47.876;8.346;2023-06-26T01:25:26;18.50;1.00
9699;DHT22;10089;47.876;8.346;2023-06-26T01:27:55;17.10;99.90
9699;DHT22;10089;47.876;8.346;2023-06-26T01:30:21;16.80;1.00
9699;DHT22;10089;47.876;8.346;2023-06-26T01:32:48;18.00;1.00
9699;DHT22;10089;47.876;8.346;2023-06-26T01:35:15;16.90;58.20
9699;DHT22;10089;47.876;8.346;2023-06-26T01:37:41;17.30;99.90
9699;DHT22;10089;47.876;8.346;2023-06-26T01:40:07;17.80;40.90
9699;DHT22;10089;47.876;8.346;2023-06-26T01:42:33;16.80;99.90
9699;DHT22;10089;47.876;8.346;2023-06-26T01:45:14;17.50;1.00
9699;DHT22;10089;47.876;8.346;2023-06-26T01:47:44;16.70;1.00
9699;DHT22;10089;47.876;8.346;2023-06-26T01:50:20;16.60;99.90
9699;DHT22;10089;47.876;8.346;2023-06-26T01:57:56;16.70;1.00
9699;DHT22;10089;47.876;8.346;2023-06-26T02:00:23;18.30;99.90
9699;DHT22;10089;47.876;8.346;2023-06-26T02:02:49;17.20;99.90
9699;DHT22;10089;47.876;8.346;2023-06-26T02:05:15;16.60;99.90
9699;DHT22;10089;47.876;8.346;2023-06-26T02:07:41;16.60;1.00
9699;DHT22;10089;47.876;8.346;2023-06-26T02:10:07;16.60;1.00
9699;DHT22;10089;47.876;8.346;2023-06-26T02:12:33;16.50;99.90
9699;DHT22;10089;47.876;8.346;2023-06-26T02:14:59;16.50;99.90
9699;DHT22;10089;47.876;8.346;2023-06-26T02:17:25;18.40;1.00
9699;DHT22;10089;47.876;8.346;2023-06-26T02:19:50;16.40;1.00
9699;DHT22;10089;47.876;8.346;2023-06-26T02:22:16;16.40;1.00
9699;DHT22;10089;47.876;8.346;2023-06-26T02:24:43;16.30;1.00
9699;DHT22;10089;47.876;8.346;2023-06-26T02:27:09;18.40;1.00
9699;DHT22;10089;47.876;8.346;2023-06-26T02:29:34;17.30;99.90
9699;DHT22;10089;47.876;8.346;2023-06-26T02:32:00;16.80;99.90
9699;DHT22;10089;47.876;8.346;2023-06-26T02:34:25;16.40;1.00
9699;DHT22;10089;47.876;8.346;2023-06-26T02:36:51;16.50;1.00
9699;DHT22;10089;47.876;8.346;2023-06-26T02:39:20;17.40;83.40
9699;DHT22;10089;47.876;8.346;2023-06-26T02:41:45;16.50;99.90
9699;DHT22;10089;47.876;8.346;2023-06-26T02:44:11;17.40;1.00
9699;DHT22;10089;47.876;8.346;2023-06-26T02:46:38;16.30;99.90
9699;DHT22;10089;47.876;8.346;2023-06-26T02:49:03;16.60;1.00
9699;DHT22;10089;47.876;8.346;2023-06-26T02:51:31;16.70;1.00
9699;DHT22;10089;47.876;8.346;2023-06-26T02:53:56;17.60;1.00
9699;DHT22;10089;47.876;8.346;2023-06-26T02:56:22;17.60;1.00
9699;DHT22;10089;47.876;8.346;2023-06-26T02:58:47;17.50;1.00
9699;DHT22;10089;47.876;8.346;2023-06-26T03:01:13;17.70;1.00
9699;DHT22;10089;47.876;8.346;2023-06-26T03:03:40;17.30;1.00
9699;DHT22;10089;47.876;8.346;2023-06-26T03:06:07;17.60;99.90
9699;DHT22;10089;47.876;8.346;2023-06-26T03:08:34;16.80;1.00
9699;DHT22;10089;47.876;8.346;2023-06-26T03:11:00;17.50;1.00
9699;DHT22;10089;47.876;8.346;2023-06-26T03:13:26;17.60;1.00
9699;DHT22;10089;47.876;8.346;2023-06-26T03:15:51;16.30;99.90
9699;DHT22;10089;47.876;8.346;2023-06-26T03:18:17;16.70;1.00
9699;DHT22;10089;47.876;8.346;2023-06-26T03:20:42;17.50;1.00
9699;DHT22;10089;47.876;8.346;2023-06-26T03:23:08;16.40;1.00
9699;DHT22;10089;47.876;8.346;2023-06-26T03:25:34;17.80;1.00
9699;DHT22;10089;47.876;8.346;2023-06-26T03:27:59;16.50;1.00
9699;DHT22;10089;47.876;8.346;2023-06-26T03:30:25;17.90;1.00
9699;DHT22;10089;47.876;8.346;2023-06-26T03:32:50;16.40;1.00
9699;DHT22;10089;47.876;8.346;2023-06-26T03:35:16;18.30;99.90
9699;DHT22;10089;47.876;8.346;2023-06-26T03:37:42;17.70;1.00
9699;DHT22;10089;47.876;8.346;2023-06-26T03:40:08;17.70;99.90
9699;DHT22;10089;47.876;8.346;2023-06-26T03:42:34;16.30;1.00
9699;DHT22;10089;47.876;8.346;2023-06-26T03:44:59;16.20;1.00
9699;DHT22;10089;47.876;8.346;2023-06-26T03:47:25;16.10;1.00
9699;DHT22;10089;47.876;8.346;2023-06-26T03:49:50;17.90;99.90
9699;DHT22;10089;47.876;8.346;2023-06-26T03:52:16;16.90;46.40
9699;DHT22;10089;47.876;8.346;2023-06-26T03:54:41;17.80;1.00
9699;DHT22;10089;47.876;8.346;2023-06-26T03:57:07;16.20;20.40
9699;DHT22;10089;47.876;8.346;2023-06-26T03:59:33;17.60;99.90
9699;DHT22;10089;47.876;8.346;2023-06-26T04:01:58;16.90;1.00
9699;DHT22;10089;47.876;8.346;2023-06-26T04:04:24;16.00;1.00
9699;DHT22;10089;47.876;8.346;2023-06-26T04:06:49;17.00;99.90
9699;DHT22;10089;47.876;8.346;2023-06-26T04:09:16;17.40;1.00
9699;DHT22;10089;47.876;8.346;2023-06-26T04:11:42;17.20;99.90
9699;DHT22;10089;47.876;8.346;2023-06-26T04:14:07;17.20;1.00
9699;DHT22;10089;47.876;8.346;2023-06-26T04:16:33;16.50;1.00
9699;DHT22;10089;47.876;8.346;2023-06-26T04:18:59;17.90;99.90
9699;DHT22;10089;47.876;8.346;2023-06-26T04:21:24;18.00;99.90
9699;DHT22;10089;47.876;8.346;2023-06-26T04:23:50;16.30;1.00
9699;DHT22;10089;47.876;8.346;2023-06-26T04:26:16;17.60;99.90
9699;DHT22;10089;47.876;8.346;2023-06-26T04:28:42;17.30;1.00
9699;DHT22;10089;47.876;8.346;2023-06-26T04:31:08;16.50;1.00
9699;DHT22;10089;47.876;8.346;2023-06-26T04:33:34;16.40;1.00
9699;DHT22;10089;47.876;8.346;2023-06-26T04:36:03;16.50;99.90
9699;DHT22;10089;47.876;8.346;2023-06-26T04:38:29;16.50;1.00
9699;DHT22;10089;47.876;8.346;2023-06-26T04:40:55;17.50;1.00
9699;DHT22;10089;47.876;8.346;2023-06-26T04:43:21;16.60;99.90
9699;DHT22;10089;47.876;8.346;2023-06-26T04:45:46;17.30;99.90
9699;DHT22;10089;47.876;8.346;2023-06-26T04:48:12;16.70;1.00
9699;DHT22;10089;47.876;8.346;2023-06-26T04:50:38;16.80;1.00
9699;DHT22;10089;47.876;8.346;2023-06-26T04:53:03;18.30;13.20
9699;DHT22;10089;47.876;8.346;2023-06-26T04:55:29;17.30;22.50
9699;DHT22;10089;47.876;8.346;2023-06-26T04:57:56;18.10;99.90
9699;DHT22;10089;47.876;8.346;2023-06-26T05:00:21;18.40;99.90
9699;DHT22;10089;47.876;8.346;2023-06-26T05:02:48;19.30;96.50
9699;DHT22;10089;47.876;8.346;2023-06-26T05:05:13;18.30;99.90
9699;DHT22;10089;47.876;8.346;2023-06-26T05:07:41;18.90;99.90
9699;DHT22;10089;47.876;8.346;2023-06-26T05:10:07;19.50;1.00
9699;DHT22;10089;47.876;8.346;2023-06-26T05:12:33;19.70;22.10
9699;DHT22;10089;47.876;8.346;2023-06-26T05:14:59;20.40;1.00
9699;DHT22;10089;47.876;8.346;2023-06-26T05:17:24;19.40;1.00
9699;DHT22;10089;47.876;8.346;2023-06-26T05:19:50;21.10;1.00
9699;DHT22;10089;47.876;8.346;2023-06-26T05:22:17;19.20;99.90
9699;DHT22;10089;47.876;8.346;2023-06-26T05:24:44;18.80;1.00
9699;DHT22;10089;47.876;8.346;2023-06-26T05:27:12;19.30;1.00
9699;DHT22;10089;47.876;8.346;2023-06-26T05:29:44;20.00;1.00
9699;DHT22;10089;47.876;8.346;2023-06-26T05:32:11;20.90;99.90
9699;DHT22;10089;47.876;8.346;2023-06-26T05:34:38;21.60;1.00
9699;DHT22;10089;47.876;8.346;2023-06-26T05:37:05;21.30;1.00
9699;DHT22;10089;47.876;8.346;2023-06-26T05:39:32;21.80;1.00
9699;DHT22;10089;47.876;8.346;2023-06-26T05:41:58;22.50;99.90
9699;DHT22;10089;47.876;8.346;2023-06-26T05:44:23;22.50;99.90
9699;DHT22;10089;47.876;8.346;2023-06-26T05:46:49;22.80;1.00
9699;DHT22;10089;47.876;8.346;2023-06-26T05:49:15;23.30;1.00
9699;DHT22;10089;47.876;8.346;2023-06-26T05:51:40;23.40;1.00
9699;DHT22;10089;47.876;8.346;2023-06-26T05:54:06;24.00;1.00
9699;DHT22;10089;47.876;8.346;2023-06-26T05:56:32;24.20;1.00
9699;DHT22;10089;47.876;8.346;2023-06-26T05:58:58;24.40;1.00
9699;DHT22;10089;47.876;8.346;2023-06-26T06:01:24;24.40;1.00
9699;DHT22;10089;47.876;8.346;2023-06-26T06:03:49;23.50;1.00
9699;DHT22;10089;47.876;8.346;2023-06-26T06:06:15;22.90;1.00
9699;DHT22;10089;47.876;8.346;2023-06-26T06:08:41;23.80;1.00
9699;DHT22;10089;47.876;8.346;2023-06-26T06:11:07;24.10;1.00
9699;DHT22;10089;47.876;8.346;2023-06-26T06:13:32;24.00;1.00
9699;DHT22;10089;47.876;8.346;2023-06-26T06:15:58;24.10;1.00
9699;DHT22;10089;47.876;8.346;2023-06-26T06:18:24;24.50;1.00
9699;DHT22;10089;47.876;8.346;2023-06-26T06:20:49;24.10;1.00
9699;DHT22;10089;47.876;8.346;2023-06-26T06:23:15;23.30;1.00
9699;DHT22;10089;47.876;8.346;2023-06-26T06:25:40;23.30;1.00
9699;DHT22;10089;47.876;8.346;2023-06-26T06:28:06;22.50;1.00
9699;DHT22;10089;47.876;8.346;2023-06-26T06:30:31;22.90;1.00
9699;DHT22;10089;47.876;8.346;2023-06-26T06:32:57;22.70;1.00
9699;DHT22;10089;47.876;8.346;2023-06-26T06:35:23;22.40;44.00
9699;DHT22;10089;47.876;8.346;2023-06-26T06:37:49;23.00;3.80
9699;DHT22;10089;47.876;8.346;2023-06-26T06:40:15;22.90;1.00
9699;DHT22;10089;47.876;8.346;2023-06-26T06:42:40;23.00;99.90
9699;DHT22;10089;47.876;8.346;2023-06-26T06:45:06;23.80;1.00
9699;DHT22;10089;47.876;8.346;2023-06-26T06:47:32;24.00;1.00
9699;DHT22;10089;47.876;8.346;2023-06-26T06:49:58;24.00;1.00
9699;DHT22;10089;47.876;8.346;2023-06-26T06:52:24;24.40;1.00
9699;DHT22;10089;47.876;8.346;2023-06-26T06:54:54;24.20;1.00
9699;DHT22;10089;47.876;8.346;2023-06-26T06:57:21;25.00;1.00
9699;DHT22;10089;47.876;8.346;2023-06-26T06:59:47;25.40;1.00
9699;DHT22;10089;47.876;8.346;2023-06-26T07:02:14;25.90;1.00
9699;DHT22;10089;47.876;8.346;2023-06-26T07:04:40;25.50;1.00
9699;DHT22;10089;47.876;8.346;2023-06-26T07:07:06;25.90;1.00
9699;DHT22;10089;47.876;8.346;2023-06-26T07:09:32;26.00;1.00
9699;DHT22;10089;47.876;8.346;2023-06-26T07:11:57;26.10;1.00
9699;DHT22;10089;47.876;8.346;2023-06-26T07:14:23;26.60;1.00
9699;DHT22;10089;47.876;8.346;2023-06-26T07:16:48;26.20;1.00
9699;DHT22;10089;47.876;8.346;2023-06-26T07:19:14;26.00;1.00
9699;DHT22;10089;47.876;8.346;2023-06-26T07:21:40;26.30;1.00
9699;DHT22;10089;47.876;8.346;2023-06-26T07:24:06;26.60;1.00
9699;DHT22;10089;47.876;8.346;2023-06-26T07:26:32;27.50;1.00
9699;DHT22;10089;47.876;8.346;2023-06-26T07:28:58;27.40;1.00
9699;DHT22;10089;47.876;8.346;2023-06-26T07:31:24;27.30;1.00
9699;DHT22;10089;47.876;8.346;2023-06-26T07:33:49;27.20;1.00
9699;DHT22;10089;47.876;8.346;2023-06-26T07:36:15;26.60;1.00
9699;DHT22;10089;47.876;8.346;2023-06-26T07:38:40;26.50;1.00
9699;DHT22;10089;47.876;8.346;2023-06-26T07:41:06;25.90;1.00
9699;DHT22;10089;47.876;8.346;2023-06-26T07:43:31;26.10;1.00
9699;DHT22;10089;47.876;8.346;2023-06-26T07:45:57;26.20;1.00
9699;DHT22;10089;47.876;8.346;2023-06-26T07:48:25;26.50;1.00
9699;DHT22;10089;47.876;8.346;2023-06-26T07:50:51;27.60;99.90
9699;DHT22;10089;47.876;8.346;2023-06-26T07:53:17;27.40;99.90
9699;DHT22;10089;47.876;8.346;2023-06-26T07:55:43;27.20;99.90
9699;DHT22;10089;47.876;8.346;2023-06-26T07:58:09;27.70;99.90
9699;DHT22;10089;47.876;8.346;2023-06-26T08:00:35;28.40;99.90
9699;DHT22;10089;47.876;8.346;2023-06-26T08:03:00;28.60;99.90
9699;DHT22;10089;47.876;8.346;2023-06-26T08:05:26;28.70;99.90
9699;DHT22;10089;47.876;8.346;2023-06-26T08:07:52;29.00;99.90
9699;DHT22;10089;47.876;8.346;2023-06-26T08:10:17;28.70;99.90
9699;DHT22;10089;47.876;8.346;2023-06-26T08:12:43;28.80;99.90
9699;DHT22;10089;47.876;8.346;2023-06-26T08:15:11;29.00;99.90
9699;DHT22;10089;47.876;8.346;2023-06-26T08:17:37;28.80;99.90
9699;DHT22;10089;47.876;8.346;2023-06-26T08:20:04;28.90;99.90
9699;DHT22;10089;47.876;8.346;2023-06-26T08:22:29;29.10;99.90
9699;DHT22;10089;47.876;8.346;2023-06-26T08:24:55;29.00;94.80
9699;DHT22;10089;47.876;8.346;2023-06-26T08:27:21;28.90;76.70
9699;DHT22;10089;47.876;8.346;2023-06-26T08:29:46;29.10;80.60
9699;DHT22;10089;47.876;8.346;2023-06-26T08:32:12;29.20;74.40
9699;DHT22;10089;47.876;8.346;2023-06-26T08:34:37;29.50;71.60
9699;DHT22;10089;47.876;8.346;2023-06-26T08:37:03;29.60;56.60
9699;DHT22;10089;47.876;8.346;2023-06-26T08:39:29;29.60;59.80
9699;DHT22;10089;47.876;8.346;2023-06-26T08:41:54;29.60;62.00
9699;DHT22;10089;47.876;8.346;2023-06-26T08:44:20;29.70;49.90
9699;DHT22;10089;47.876;8.346;2023-06-26T08:46:50;29.50;32.50
9699;DHT22;10089;47.876;8.346;2023-06-26T08:49:29;29.30;38.20
9699;DHT22;10089;47.876;8.346;2023-06-26T08:52:02;29.50;34.00
9699;DHT22;10089;47.876;8.346;2023-06-26T08:54:32;29.80;22.60
9699;DHT22;10089;47.876;8.346;2023-06-26T08:56:59;29.70;26.40
9699;DHT22;10089;47.876;8.346;2023-06-26T08:59:25;30.10;20.80
9699;DHT22;10089;47.876;8.346;2023-06-26T09:01:51;30.10;21.70
9699;DHT22;10089;47.876;8.346;2023-06-26T09:04:17;29.70;14.60
9699;DHT22;10089;47.876;8.346;2023-06-26T09:06:44;29.80;5.20
9699;DHT22;10089;47.876;8.346;2023-06-26T09:09:09;30.10;8.90
9699;DHT22;10089;47.876;8.346;2023-06-26T09:11:36;30.10;8.30
9699;DHT22;10089;47.876;8.346;2023-06-26T09:14:01;29.60;8.00
9699;DHT22;10089;47.876;8.346;2023-06-26T09:16:30;29.30;8.90
9699;DHT22;10089;47.876;8.346;2023-06-26T09:18:56;29.50;11.10
9699;DHT22;10089;47.876;8.346;2023-06-26T09:21:22;29.80;7.30
9699;DHT22;10089;47.876;8.346;2023-06-26T09:23:49;30.20;28.60
9699;DHT22;10089;47.876;8.346;2023-06-26T09:26:15;30.00;14.20
9699;DHT22;10089;47.876;8.346;2023-06-26T09:28:42;30.50;4.20
9699;DHT22;10089;47.876;8.346;2023-06-26T09:31:08;29.80;1.20
9699;DHT22;10089;47.876;8.346;2023-06-26T09:33:37;29.30;1.00
9699;DHT22;10089;47.876;8.346;2023-06-26T09:36:18;28.80;4.00
9699;DHT22;10089;47.876;8.346;2023-06-26T09:38:44;28.70;14.50
9699;DHT22;10089;47.876;8.346;2023-06-26T09:41:09;29.00;12.30
9699;DHT22;10089;47.876;8.346;2023-06-26T09:43:48;29.50;7.50
9699;DHT22;10089;47.876;8.346;2023-06-26T09:46:24;30.20;9.90
9699;DHT22;10089;47.876;8.346;2023-06-26T09:49:01;30.40;11.40
9699;DHT22;10089;47.876;8.346;2023-06-26T09:51:29;30.60;1.00
9699;DHT22;10089;47.876;8.346;2023-06-26T09:53:55;30.10;1.00
9699;DHT22;10089;47.876;8.346;2023-06-26T09:56:21;30.00;1.00
9699;DHT22;10089;47.876;8.346;2023-06-26T09:58:47;29.60;3.90
9699;DHT22;10089;47.876;8.346;2023-06-26T10:01:13;29.60;5.30
9699;DHT22;10089;47.876;8.346;2023-06-26T10:03:39;29.60;7.20
9699;DHT22;10089;47.876;8.346;2023-06-26T10:06:05;29.20;1.00
9699;DHT22;10089;47.876;8.346;2023-06-26T10:08:34;28.30;7.00
9699;DHT22;10089;47.876;8.346;2023-06-26T10:11:00;28.60;11.80
9699;DHT22;10089;47.876;8.346;2023-06-26T10:13:31;29.00;15.50
9699;DHT22;10089;47.876;8.346;2023-06-26T10:16:01;29.20;9.80
9699;DHT22;10089;47.876;8.346;2023-06-26T10:18:27;29.70;12.90
9699;DHT22;10089;47.876;8.346;2023-06-26T10:20:57;30.20;7.60
9699;DHT22;10089;47.876;8.346;2023-06-26T10:23:24;30.80;5.90
9699;DHT22;10089;47.876;8.346;2023-06-26T10:25:52;30.80;1.00
9699;DHT22;10089;47.876;8.346;2023-06-26T10:28:21;31.00;1.00
9699;DHT22;10089;47.876;8.346;2023-06-26T10:30:49;30.80;1.00
9699;DHT22;10089;47.876;8.346;2023-06-26T10:33:16;30.60;2.90
9699;DHT22;10089;47.876;8.346;2023-06-26T10:35:43;29.80;5.80
9699;DHT22;10089;47.876;8.346;2023-06-26T10:38:10;29.10;4.80
9699;DHT22;10089;47.876;8.346;2023-06-26T10:40:46;28.60;4.20
9699;DHT22;10089;47.876;8.346;2023-06-26T10:43:14;28.20;20.10
9699;DHT22;10089;47.876;8.346;2023-06-26T10:45:49;28.20;31.00
9699;DHT22;10089;47.876;8.346;2023-06-26T10:48:20;27.90;32.20
9699;DHT22;10089;47.876;8.346;2023-06-26T10:50:47;27.50;40.40
9699;DHT22;10089;47.876;8.346;2023-06-26T10:56:01;27.10;70.00
9699;DHT22;10089;47.876;8.346;2023-06-26T10:58:47;27.80;81.30
9699;DHT22;10089;47.876;8.346;2023-06-26T11:01:22;28.50;84.20
9699;DHT22;10089;47.876;8.346;2023-06-26T11:06:23;27.60;95.00
9699;DHT22;10089;47.876;8.346;2023-06-26T11:08:50;27.20;99.40
9699;DHT22;10089;47.876;8.346;2023-06-26T11:11:19;26.90;99.90
9699;DHT22;10089;47.876;8.346;2023-06-26T11:13:46;26.50;99.90
9699;DHT22;10089;47.876;8.346;2023-06-26T11:16:12;26.40;99.90
9699;DHT22;10089;47.876;8.346;2023-06-26T11:18:38;26.60;99.90
9699;DHT22;10089;47.876;8.346;2023-06-26T11:21:13;27.30;99.90
9699;DHT22;10089;47.876;8.346;2023-06-26T11:23:40;27.00;99.90
9699;DHT22;10089;47.876;8.346;2023-06-26T11:26:20;26.90;99.90
9699;DHT22;10089;47.876;8.346;2023-06-26T11:28:55;26.80;99.90
9699;DHT22;10089;47.876;8.346;2023-06-26T11:31:29;26.50;99.90
9699;DHT22;10089;47.876;8.346;2023-06-26T11:34:02;26.40;99.90
9699;DHT22;10089;47.876;8.346;2023-06-26T11:36:30;26.50;99.90
9699;DHT22;10089;47.876;8.346;2023-06-26T11:39:01;26.50;99.90
9699;DHT22;10089;47.876;8.346;2023-06-26T11:41:35;26.30;99.90
9699;DHT22;10089;47.876;8.346;2023-06-26T11:46:27;26.50;99.90
9699;DHT22;10089;47.876;8.346;2023-06-26T11:48:53;26.70;99.90
9699;DHT22;10089;47.876;8.346;2023-06-26T11:51:19;26.60;99.90
9699;DHT22;10089;47.876;8.346;2023-06-26T11:53:46;26.60;99.90
9699;DHT22;10089;47.876;8.346;2023-06-26T11:56:13;27.10;99.90
9699;DHT22;10089;47.876;8.346;2023-06-26T12:01:27;27.80;99.90
9699;DHT22;10089;47.876;8.346;2023-06-26T12:03:59;28.20;99.90
9699;DHT22;10089;47.876;8.346;2023-06-26T12:06:26;28.40;99.90
9699;DHT22;10089;47.876;8.346;2023-06-26T12:08:52;28.30;99.90
9699;DHT22;10089;47.876;8.346;2023-06-26T12:11:18;28.20;99.90
9699;DHT22;10089;47.876;8.346;2023-06-26T12:13:45;28.00;99.90
9699;DHT22;10089;47.876;8.346;2023-06-26T12:16:12;28.40;99.90
9699;DHT22;10089;47.876;8.346;2023-06-26T12:18:37;28.20;99.90
9699;DHT22;10089;47.876;8.346;2023-06-26T12:21:03;28.40;99.90
9699;DHT22;10089;47.876;8.346;2023-06-26T12:23:39;28.60;99.90
9699;DHT22;10089;47.876;8.346;2023-06-26T12:26:21;28.80;99.90
9699;DHT22;10089;47.876;8.346;2023-06-26T12:28:47;29.00;99.90
9699;DHT22;10089;47.876;8.346;2023-06-26T12:31:16;28.80;99.90
9699;DHT22;10089;47.876;8.346;2023-06-26T12:33:45;28.10;99.90
9699;DHT22;10089;47.876;8.346;2023-06-26T12:36:13;27.50;99.90
9699;DHT22;10089;47.876;8.346;2023-06-26T12:38:41;27.70;99.90
9699;DHT22;10089;47.876;8.346;2023-06-26T12:41:12;27.90;99.90
9699;DHT22;10089;47.876;8.346;2023-06-26T12:43:39;27.70;99.90
9699;DHT22;10089;47.876;8.346;2023-06-26T12:46:05;27.80;99.90
9699;DHT22;10089;47.876;8.346;2023-06-26T12:48:41;28.20;99.90
9699;DHT22;10089;47.876;8.346;2023-06-26T12:51:13;28.30;99.90
9699;DHT22;10089;47.876;8.346;2023-06-26T12:53:40;28.30;99.90
9699;DHT22;10089;47.876;8.346;2023-06-26T12:56:06;28.40;99.90
9699;DHT22;10089;47.876;8.346;2023-06-26T12:58:33;28.50;99.90
9699;DHT22;10089;47.876;8.346;2023-06-26T13:00:59;28.80;99.90
9699;DHT22;10089;47.876;8.346;2023-06-26T13:03:24;28.90;99.90
9699;DHT22;10089;47.876;8.346;2023-06-26T13:05:50;28.70;99.90
9699;DHT22;10089;47.876;8.346;2023-06-26T13:08:16;28.50;99.90
9699;DHT22;10089;47.876;8.346;2023-06-26T13:10:45;28.40;99.90
9699;DHT22;10089;47.876;8.346;2023-06-26T13:13:11;28.40;99.90
9699;DHT22;10089;47.876;8.346;2023-06-26T13:15:37;28.60;99.90
9699;DHT22;10089;47.876;8.346;2023-06-26T13:18:02;28.70;99.90
9699;DHT22;10089;47.876;8.346;2023-06-26T13:20:28;28.30;99.90
9699;DHT22;10089;47.876;8.346;2023-06-26T13:22:54;28.20;99.90
9699;DHT22;10089;47.876;8.346;2023-06-26T13:25:21;28.10;99.90
9699;DHT22;10089;47.876;8.346;2023-06-26T13:27:46;28.10;99.90
9699;DHT22;10089;47.876;8.346;2023-06-26T13:30:13;28.10;99.90
9699;DHT22;10089;47.876;8.346;2023-06-26T13:32:39;27.80;99.90
9699;DHT22;10089;47.876;8.346;2023-06-26T13:35:05;27.60;99.90
9699;DHT22;10089;47.876;8.346;2023-06-26T13:37:31;27.50;99.90
9699;DHT22;10089;47.876;8.346;2023-06-26T13:39:57;27.40;99.90
9699;DHT22;10089;47.876;8.346;2023-06-26T13:42:24;27.30;99.90
9699;DHT22;10089;47.876;8.346;2023-06-26T13:44:50;27.10;99.90
9699;DHT22;10089;47.876;8.346;2023-06-26T13:47:16;27.10;99.90
9699;DHT22;10089;47.876;8.346;2023-06-26T13:49:41;27.30;99.90
9699;DHT22;10089;47.876;8.346;2023-06-26T13:52:07;27.40;99.90
9699;DHT22;10089;47.876;8.346;2023-06-26T13:54:36;27.50;99.90
9699;DHT22;10089;47.876;8.346;2023-06-26T13:57:05;27.50;99.90
9699;DHT22;10089;47.876;8.346;2023-06-26T13:59:31;27.40;99.90
9699;DHT22;10089;47.876;8.346;2023-06-26T14:01:57;27.20;99.90
9699;DHT22;10089;47.876;8.346;2023-06-26T14:04:23;27.20;99.90
9699;DHT22;10089;47.876;8.346;2023-06-26T14:06:48;26.80;99.90
9699;DHT22;10089;47.876;8.346;2023-06-26T14:09:14;26.80;99.90
9699;DHT22;10089;47.876;8.346;2023-06-26T14:11:39;26.50;99.90
9699;DHT22;10089;47.876;8.346;2023-06-26T14:14:05;26.60;99.90
9699;DHT22;10089;47.876;8.346;2023-06-26T14:16:32;26.90;99.90
9699;DHT22;10089;47.876;8.346;2023-06-26T14:18:58;26.80;99.90
9699;DHT22;10089;47.876;8.346;2023-06-26T14:21:23;26.70;99.90
9699;DHT22;10089;47.876;8.346;2023-06-26T14:23:49;26.80;99.90
9699;DHT22;10089;47.876;8.346;2023-06-26T14:26:15;26.70;99.90
9699;DHT22;10089;47.876;8.346;2023-06-26T14:28:40;26.70;99.90
9699;DHT22;10089;47.876;8.346;2023-06-26T14:31:06;27.00;99.90
9699;DHT22;10089;47.876;8.346;2023-06-26T14:33:32;26.90;99.90
9699;DHT22;10089;47.876;8.346;2023-06-26T14:35:57;26.50;99.90
9699;DHT22;10089;47.876;8.346;2023-06-26T14:38:23;26.30;99.90
9699;DHT22;10089;47.876;8.346;2023-06-26T14:40:48;26.20;99.90
9699;DHT22;10089;47.876;8.346;2023-06-26T14:43:14;26.30;99.90
9699;DHT22;10089;47.876;8.346;2023-06-26T14:45:40;26.50;99.90
9699;DHT22;10089;47.876;8.346;2023-06-26T14:48:05;26.60;99.90
9699;DHT22;10089;47.876;8.346;2023-06-26T14:50:31;26.50;99.90
9699;DHT22;10089;47.876;8.346;2023-06-26T14:52:56;26.50;99.90
9699;DHT22;10089;47.876;8.346;2023-06-26T14:55:22;26.10;99.90
9699;DHT22;10089;47.876;8.346;2023-06-26T14:57:48;26.20;99.90
9699;DHT22;10089;47.876;8.346;2023-06-26T15:00:14;26.10;99.90
9699;DHT22;10089;47.876;8.346;2023-06-26T15:02:40;26.10;99.90
9699;DHT22;10089;47.876;8.346;2023-06-26T15:05:07;26.00;99.90
9699;DHT22;10089;47.876;8.346;2023-06-26T15:07:32;26.10;99.90
9699;DHT22;10089;47.876;8.346;2023-06-26T15:09:59;26.20;99.90
9699;DHT22;10089;47.876;8.346;2023-06-26T15:12:24;26.10;99.90
9699;DHT22;10089;47.876;8.346;2023-06-26T15:14:50;26.00;99.90
9699;DHT22;10089;47.876;8.346;2023-06-26T15:17:17;25.90;99.90
9699;DHT22;10089;47.876;8.346;2023-06-26T15:19:43;25.90;99.90
9699;DHT22;10089;47.876;8.346;2023-06-26T15:22:08;25.90;99.90
9699;DHT22;10089;47.876;8.346;2023-06-26T15:24:34;25.80;99.90
9699;DHT22;10089;47.876;8.346;2023-06-26T15:26:59;25.70;99.90
9699;DHT22;10089;47.876;8.346;2023-06-26T15:29:25;25.70;99.90
9699;DHT22;10089;47.876;8.346;2023-06-26T15:31:52;25.80;99.90
9699;DHT22;10089;47.876;8.346;2023-06-26T15:34:18;25.90;99.90
9699;DHT22;10089;47.876;8.346;2023-06-26T15:36:43;25.60;99.90
9699;DHT22;10089;47.876;8.346;2023-06-26T15:39:10;25.50;99.90
9699;DHT22;10089;47.876;8.346;2023-06-26T15:41:36;25.50;99.90
9699;DHT22;10089;47.876;8.346;2023-06-26T15:44:03;25.50;99.90
9699;DHT22;10089;47.876;8.346;2023-06-26T15:46:29;25.30;99.90
9699;DHT22;10089;47.876;8.346;2023-06-26T15:48:55;25.50;99.90
9699;DHT22;10089;47.876;8.346;2023-06-26T15:51:21;25.20;99.90
9699;DHT22;10089;47.876;8.346;2023-06-26T15:53:46;25.40;99.90
9699;DHT22;10089;47.876;8.346;2023-06-26T15:56:12;25.40;99.90
9699;DHT22;10089;47.876;8.346;2023-06-26T15:58:38;25.40;99.90
9699;DHT22;10089;47.876;8.346;2023-06-26T16:01:09;25.50;99.90
9699;DHT22;10089;47.876;8.346;2023-06-26T16:03:35;25.50;99.90
9699;DHT22;10089;47.876;8.346;2023-06-26T16:06:01;25.50;99.90
9699;DHT22;10089;47.876;8.346;2023-06-26T16:08:26;25.70;99.90